Wind Surf — C6IO6 — position and weather

sailwx.info

Track history (hours):
 
Tides and Currents Weather Stations Pressure Air Temp Water Temp Dewpoint Dewpoint Depression Visibility Wind Speed Wind Dir Waves Ship Positions

Wind Surf

Operator: Holland America Line

Last reported at 2018-Dec-09 02:15 UTC. Time now 2018-Dec-11 06:28 UTC.
Position N 17°48' W 062°53'.

Length 187 m; draft 5.4 m.

Type: Passenger vessel. MMSI: 309242000.

Date/timePositionNaut miles runAvg speedWind from/ knotsBaromVisibWave heightAir tempDewpointWater temp
2018-Dec-09 02:15N 17°48' W 062°53'2 6.9
2018-Dec-09 01:57N 17°49' W 062°55'3 6.7
2018-Dec-09 01:29N 17°50' W 062°58'4 6.5
2018-Dec-09 00:56N 17°52' W 063°01'3 6.4
2018-Dec-09 00:27N 17°54' W 063°03'5 6.8
2018-Dec-08 23:41N 17°59' W 063°06'3 7.6
2018-Dec-08 23:18N 18°01' W 063°03'1 1.3
2018-Dec-08 22:52N 18°01' W 063°03'0 0.0
2018-Dec-08 22:21N 18°01' W 063°03'0 0.0
2018-Dec-08 21:54N 18°01' W 063°03'0 0.0
2018-Dec-08 21:27N 18°01' W 063°03'0 0.0
2018-Dec-08 20:43N 18°01' W 063°03'0 0.0
2018-Dec-08 19:55N 18°01' W 063°03'0 0.0
2018-Dec-08 19:25N 18°01' W 063°03'0 0.0
2018-Dec-08 19:00N 18°01' W 063°03'0 0.0
2018-Dec-08 18:24N 18°01' W 063°03'0 0.0
2018-Dec-08 17:42N 18°01' W 063°03'0 0.0
2018-Dec-08 17:27N 18°01' W 063°03'0 0.0
2018-Dec-08 16:33N 18°01' W 063°03'0 0.0
2018-Dec-08 16:15N 18°01' W 063°03'0 0.0
2018-Dec-08 16:00N 18°01' W 063°03'0 0.0
2018-Dec-08 15:30N 18°01' W 063°03'0 0.0
2018-Dec-08 15:00N 18°01' W 063°03'0 0.0
2018-Dec-08 14:30N 18°01' W 063°03'0 0.0
2018-Dec-08 13:49N 18°01' W 063°03'0 0.0
2018-Dec-08 12:52N 18°01' W 063°03'0 0.0
2018-Dec-08 12:21N 18°01' W 063°03'0 0.0
2018-Dec-08 11:51N 18°01' W 063°03'0 0.0
2018-Dec-08 10:54N 18°01' W 063°03'0 0.0
2018-Dec-08 10:18N 18°01' W 063°03'0 0.1
2018-Dec-08 09:30N 18°01' W 063°03'5 5.4
2018-Dec-08 08:34N 17°58' W 063°07'1 5.0
2018-Dec-08 08:27N 17°58' W 063°08'3 5.0
2018-Dec-08 07:48N 17°56' W 063°11'2 5.1
2018-Dec-08 07:26N 17°55' W 063°12'2 5.2
2018-Dec-08 06:58N 17°54' W 063°14'3 4.1
2018-Dec-08 06:12N 17°51' W 063°13'1 5.8
2018-Dec-08 05:58N 17°50' W 063°12'3 5.8
2018-Dec-08 05:25N 17°49' W 063°08'4 5.8
2018-Dec-08 04:40N 17°47' W 063°04'2 5.7
2018-Dec-08 04:23N 17°47' W 063°03'2 6.0
2018-Dec-08 04:00N 17°48' W 063°00'3 5.9
2018-Dec-08 03:26N 17°50' W 062°57'2 5.4
2018-Dec-08 02:59N 17°52' W 062°55'3 5.5
2018-Dec-08 02:30N 17°54' W 062°54'2 0.3
2018-Dec-07 20:35N 17°54' W 062°52'0 0.0
2018-Dec-07 16:54N 17°54' W 062°52'0 0.0
2018-Dec-07 11:59N 17°54' W 062°52'1 1.2
2018-Dec-07 10:50N 17°54' W 062°54'710.0
2018-Dec-07 10:10N 17°56' W 063°01'1 6.0
2018-Dec-07 09:55N 17°56' W 063°02'11 6.9
2018-Dec-07 08:22N 17°59' W 063°13'5 7.1
2018-Dec-07 07:36N 18°00' W 063°18'3 7.2
2018-Dec-07 07:08N 18°01' W 063°22'2 7.1
2018-Dec-07 06:52N 18°01' W 063°24'3 7.3
2018-Dec-07 06:24N 18°02' W 063°27'3 7.4
2018-Dec-07 05:56N 18°02' W 063°31'3 7.1
2018-Dec-07 05:27N 18°03' W 063°35'4 6.9
2018-Dec-07 04:48N 18°03' W 063°39'3 6.9
2018-Dec-07 04:22N 18°06' W 063°41'48 6.9
2018-Dec-06 21:24N 18°24' W 064°28'3 0.3
2018-Dec-06 11:27N 18°27' W 064°27'5 5.9
2018-Dec-06 10:35N 18°31' W 064°30'311.2
2018-Dec-06 10:16N 18°34' W 064°32'3 8.7
2018-Dec-06 09:55N 18°35' W 064°35'3 6.3
2018-Dec-06 09:27N 18°35' W 064°38'3 7.7
2018-Dec-06 09:00N 18°31' W 064°39'611.6
2018-Dec-06 08:30N 18°26' W 064°42'3 6.0
2018-Dec-06 08:00N 18°26' W 064°45'0 0.1
2018-Dec-06 07:30N 18°26' W 064°45'0 0.0
2018-Dec-06 06:50N 18°26' W 064°45'0 0.1
2018-Dec-06 06:23N 18°26' W 064°45'0 0.1
2018-Dec-06 05:53N 18°26' W 064°45'0 0.0
2018-Dec-06 05:23N 18°26' W 064°45'0 0.0
2018-Dec-06 04:59N 18°26' W 064°45'0 0.0
2018-Dec-06 04:11N 18°26' W 064°45'0 0.0
2018-Dec-06 03:50N 18°26' W 064°45'0 0.0
2018-Dec-06 03:23N 18°26' W 064°45'0 0.0
2018-Dec-06 02:29N 18°26' W 064°45'0 0.0
2018-Dec-06 01:59N 18°26' W 064°45'0 0.0
2018-Dec-06 01:29N 18°26' W 064°45'0 0.0
2018-Dec-06 00:47N 18°26' W 064°45'0 0.0
2018-Dec-06 00:29N 18°26' W 064°45'0 0.0
2018-Dec-05 23:59N 18°26' W 064°45'0 0.0
2018-Dec-05 23:29N 18°26' W 064°45'0 0.0
2018-Dec-05 22:53N 18°26' W 064°45'0 0.1
2018-Dec-05 22:29N 18°26' W 064°45'0 0.0
2018-Dec-05 21:59N 18°26' W 064°45'0 0.0
2018-Dec-05 21:05N 18°26' W 064°45'0 0.0
2018-Dec-05 20:53N 18°26' W 064°45'0 0.0
2018-Dec-05 20:29N 18°26' W 064°45'0 0.0
2018-Dec-05 19:53N 18°26' W 064°45'0 0.0
2018-Dec-05 19:29N 18°26' W 064°45'0 0.0
2018-Dec-05 18:59N 18°26' W 064°45'0 0.0
2018-Dec-05 18:29N 18°26' W 064°45'0 0.0
2018-Dec-05 17:59N 18°26' W 064°45'0 0.1
2018-Dec-05 17:29N 18°26' W 064°45'0 0.1
2018-Dec-05 16:59N 18°26' W 064°45'0 0.0
2018-Dec-05 16:29N 18°26' W 064°45'0 0.1
2018-Dec-05 15:59N 18°26' W 064°45'0 0.1
2018-Dec-05 15:23N 18°26' W 064°45'0 0.0
2018-Dec-05 14:59N 18°26' W 064°45'0 0.0
2018-Dec-05 14:29N 18°26' W 064°45'0 0.1
2018-Dec-05 13:59N 18°26' W 064°45'0 0.0
2018-Dec-05 13:29N 18°26' W 064°45'0 0.0
2018-Dec-05 12:59N 18°26' W 064°45'0 0.1
2018-Dec-05 12:29N 18°26' W 064°45'0 0.0
2018-Dec-05 11:59N 18°26' W 064°45'0 0.1
2018-Dec-05 11:29N 18°26' W 064°45'1 1.9
2018-Dec-05 11:00N 18°25' W 064°45'3 6.3
2018-Dec-05 10:30N 18°23' W 064°44'5 9.5
2018-Dec-05 09:57N 18°20' W 064°39'1 0.5
2018-Dec-05 07:19N 18°19' W 064°38'0 0.0
2018-Dec-05 03:01N 18°19' W 064°38'0 0.0
2018-Dec-05 01:49N 18°19' W 064°38'0 0.0
2018-Dec-05 00:31N 18°19' W 064°38'0 0.0
2018-Dec-04 23:19N 18°19' W 064°38'0 0.1
2018-Dec-04 22:25N 18°19' W 064°38'1 0.2
2018-Dec-04 18:26N 18°20' W 064°38'410.5
2018-Dec-04 18:00N 18°23' W 064°35'2 0.4
2018-Dec-04 11:25N 18°25' W 064°36'3 7.7
2018-Dec-04 11:00N 18°24' W 064°33'4 8.2
2018-Dec-04 10:28N 18°20' W 064°31'60 4.6
2018-Dec-03 21:21N 17°57' W 063°33'  
Track history (hours):
 
Tides and Currents Weather Stations Pressure Air Temp Water Temp Dewpoint Dewpoint Depression Visibility Wind Speed Wind Dir Waves Ship Positions

Wind Surf

Operator: Holland America Line

Last reported at 2018-Dec-09 02:15 UTC. Time now 2018-Dec-11 06:28 UTC.
Position N 17°48' W 062°53'.

Length 187 m; draft 5.4 m.

Type: Passenger vessel. MMSI: 309242000.

Date/timePositionNaut miles runAvg speedWind from/ knotsBaromVisibWave heightAir tempDewpointWater temp
2018-Dec-09 02:15N 17°48' W 062°53'2 6.9
2018-Dec-09 01:57N 17°49' W 062°55'3 6.7
2018-Dec-09 01:29N 17°50' W 062°58'4 6.5
2018-Dec-09 00:56N 17°52' W 063°01'3 6.4
2018-Dec-09 00:27N 17°54' W 063°03'5 6.8
2018-Dec-08 23:41N 17°59' W 063°06'3 7.6
2018-Dec-08 23:18N 18°01' W 063°03'1 1.3
2018-Dec-08 22:52N 18°01' W 063°03'0 0.0
2018-Dec-08 22:21N 18°01' W 063°03'0 0.0
2018-Dec-08 21:54N 18°01' W 063°03'0 0.0
2018-Dec-08 21:27N 18°01' W 063°03'0 0.0
2018-Dec-08 20:43N 18°01' W 063°03'0 0.0
2018-Dec-08 19:55N 18°01' W 063°03'0 0.0
2018-Dec-08 19:25N 18°01' W 063°03'0 0.0
2018-Dec-08 19:00N 18°01' W 063°03'0 0.0
2018-Dec-08 18:24N 18°01' W 063°03'0 0.0
2018-Dec-08 17:42N 18°01' W 063°03'0 0.0
2018-Dec-08 17:27N 18°01' W 063°03'0 0.0
2018-Dec-08 16:33N 18°01' W 063°03'0 0.0
2018-Dec-08 16:15N 18°01' W 063°03'0 0.0
2018-Dec-08 16:00N 18°01' W 063°03'0 0.0
2018-Dec-08 15:30N 18°01' W 063°03'0 0.0
2018-Dec-08 15:00N 18°01' W 063°03'0 0.0
2018-Dec-08 14:30N 18°01' W 063°03'0 0.0
2018-Dec-08 13:49N 18°01' W 063°03'0 0.0
2018-Dec-08 12:52N 18°01' W 063°03'0 0.0
2018-Dec-08 12:21N 18°01' W 063°03'0 0.0
2018-Dec-08 11:51N 18°01' W 063°03'0 0.0
2018-Dec-08 10:54N 18°01' W 063°03'0 0.0
2018-Dec-08 10:18N 18°01' W 063°03'0 0.1
2018-Dec-08 09:30N 18°01' W 063°03'5 5.4
2018-Dec-08 08:34N 17°58' W 063°07'1 5.0
2018-Dec-08 08:27N 17°58' W 063°08'3 5.0
2018-Dec-08 07:48N 17°56' W 063°11'2 5.1
2018-Dec-08 07:26N 17°55' W 063°12'2 5.2
2018-Dec-08 06:58N 17°54' W 063°14'3 4.1
2018-Dec-08 06:12N 17°51' W 063°13'1 5.8
2018-Dec-08 05:58N 17°50' W 063°12'3 5.8
2018-Dec-08 05:25N 17°49' W 063°08'4 5.8
2018-Dec-08 04:40N 17°47' W 063°04'2 5.7
2018-Dec-08 04:23N 17°47' W 063°03'2 6.0
2018-Dec-08 04:00N 17°48' W 063°00'3 5.9
2018-Dec-08 03:26N 17°50' W 062°57'2 5.4
2018-Dec-08 02:59N 17°52' W 062°55'3 5.5
2018-Dec-08 02:30N 17°54' W 062°54'2 0.3
2018-Dec-07 20:35N 17°54' W 062°52'0 0.0
2018-Dec-07 16:54N 17°54' W 062°52'0 0.0
2018-Dec-07 11:59N 17°54' W 062°52'1 1.2
2018-Dec-07 10:50N 17°54' W 062°54'710.0
2018-Dec-07 10:10N 17°56' W 063°01'1 6.0
2018-Dec-07 09:55N 17°56' W 063°02'11 6.9
2018-Dec-07 08:22N 17°59' W 063°13'5 7.1
2018-Dec-07 07:36N 18°00' W 063°18'3 7.2
2018-Dec-07 07:08N 18°01' W 063°22'2 7.1
2018-Dec-07 06:52N 18°01' W 063°24'3 7.3
2018-Dec-07 06:24N 18°02' W 063°27'3 7.4
2018-Dec-07 05:56N 18°02' W 063°31'3 7.1
2018-Dec-07 05:27N 18°03' W 063°35'4 6.9
2018-Dec-07 04:48N 18°03' W 063°39'3 6.9
2018-Dec-07 04:22N 18°06' W 063°41'48 6.9
2018-Dec-06 21:24N 18°24' W 064°28'3 0.3
2018-Dec-06 11:27N 18°27' W 064°27'5 5.9
2018-Dec-06 10:35N 18°31' W 064°30'311.2
2018-Dec-06 10:16N 18°34' W 064°32'3 8.7
2018-Dec-06 09:55N 18°35' W 064°35'3 6.3
2018-Dec-06 09:27N 18°35' W 064°38'3 7.7
2018-Dec-06 09:00N 18°31' W 064°39'611.6
2018-Dec-06 08:30N 18°26' W 064°42'3 6.0
2018-Dec-06 08:00N 18°26' W 064°45'0 0.1
2018-Dec-06 07:30N 18°26' W 064°45'0 0.0
2018-Dec-06 06:50N 18°26' W 064°45'0 0.1
2018-Dec-06 06:23N 18°26' W 064°45'0 0.1
2018-Dec-06 05:53N 18°26' W 064°45'0 0.0
2018-Dec-06 05:23N 18°26' W 064°45'0 0.0
2018-Dec-06 04:59N 18°26' W 064°45'0 0.0
2018-Dec-06 04:11N 18°26' W 064°45'0 0.0
2018-Dec-06 03:50N 18°26' W 064°45'0 0.0
2018-Dec-06 03:23N 18°26' W 064°45'0 0.0
2018-Dec-06 02:29N 18°26' W 064°45'0 0.0
2018-Dec-06 01:59N 18°26' W 064°45'0 0.0
2018-Dec-06 01:29N 18°26' W 064°45'0 0.0
2018-Dec-06 00:47N 18°26' W 064°45'0 0.0
2018-Dec-06 00:29N 18°26' W 064°45'0 0.0
2018-Dec-05 23:59N 18°26' W 064°45'0 0.0
2018-Dec-05 23:29N 18°26' W 064°45'0 0.0
2018-Dec-05 22:53N 18°26' W 064°45'0 0.1
2018-Dec-05 22:29N 18°26' W 064°45'0 0.0
2018-Dec-05 21:59N 18°26' W 064°45'0 0.0
2018-Dec-05 21:05N 18°26' W 064°45'0 0.0
2018-Dec-05 20:53N 18°26' W 064°45'0 0.0
2018-Dec-05 20:29N 18°26' W 064°45'0 0.0
2018-Dec-05 19:53N 18°26' W 064°45'0 0.0
2018-Dec-05 19:29N 18°26' W 064°45'0 0.0
2018-Dec-05 18:59N 18°26' W 064°45'0 0.0
2018-Dec-05 18:29N 18°26' W 064°45'0 0.0
2018-Dec-05 17:59N 18°26' W 064°45'0 0.1
2018-Dec-05 17:29N 18°26' W 064°45'0 0.1
2018-Dec-05 16:59N 18°26' W 064°45'0 0.0
2018-Dec-05 16:29N 18°26' W 064°45'0 0.1
2018-Dec-05 15:59N 18°26' W 064°45'0 0.1
2018-Dec-05 15:23N 18°26' W 064°45'0 0.0
2018-Dec-05 14:59N 18°26' W 064°45'0 0.0
2018-Dec-05 14:29N 18°26' W 064°45'0 0.1
2018-Dec-05 13:59N 18°26' W 064°45'0 0.0
2018-Dec-05 13:29N 18°26' W 064°45'0 0.0
2018-Dec-05 12:59N 18°26' W 064°45'0 0.1
2018-Dec-05 12:29N 18°26' W 064°45'0 0.0
2018-Dec-05 11:59N 18°26' W 064°45'0 0.1
2018-Dec-05 11:29N 18°26' W 064°45'1 1.9
2018-Dec-05 11:00N 18°25' W 064°45'3 6.3
2018-Dec-05 10:30N 18°23' W 064°44'5 9.5
2018-Dec-05 09:57N 18°20' W 064°39'1 0.5
2018-Dec-05 07:19N 18°19' W 064°38'0 0.0
2018-Dec-05 03:01N 18°19' W 064°38'0 0.0
2018-Dec-05 01:49N 18°19' W 064°38'0 0.0
2018-Dec-05 00:31N 18°19' W 064°38'0 0.0
2018-Dec-04 23:19N 18°19' W 064°38'0 0.1
2018-Dec-04 22:25N 18°19' W 064°38'1 0.2
2018-Dec-04 18:26N 18°20' W 064°38'410.5
2018-Dec-04 18:00N 18°23' W 064°35'2 0.4
2018-Dec-04 11:25N 18°25' W 064°36'3 7.7
2018-Dec-04 11:00N 18°24' W 064°33'4 8.2
2018-Dec-04 10:28N 18°20' W 064°31'60 4.6
2018-Dec-03 21:21N 17°57' W 063°33'  

Dump ship's entire track history